Latest Weather Observations for Moree

IDN60801

Issued at 6:35 pm EDT Thursday 23 October 2014 (issued every 30 minutes, with the page automatically refreshed every 10 minutes)

About weather observations | Map of weather stations | Latest weather observations for NSW | Other Formats
Station Details ID: 053115 Name: MOREE AERO Lat: -29.49 Lon: 149.85 Height: 213.0 m
Data from the previous 72 hours. | See also: Recent months at Moree
Date/Time
EDT
Temp
°C
App
Temp
°C
Dew
Point
Rel
Hum
%
Delta-T
°C
Wind Press
QNH
hPa
Press
MSL
hPa
Rain
since 9 am
mm
Dir
 
Spd
km/h
Gust
km/h
Spd
kts
Gust
kts
23/06:30pm 31.7 30.2 5.2 19 14.1 SSW 2 11 1 6 1016.1 - 0.0
23/06:00pm 32.0 27.9 4.4 17 14.5 SSW 15 22 8 12 1015.8 1015.1 0.0
23/05:30pm 32.4 29.0 3.9 16 14.9 S 11 20 6 11 1015.6 - 0.0
23/05:00pm 32.2 28.8 5.9 19 14.2 WSW 13 19 7 10 1015.6 - 0.0
23/04:30pm 32.5 29.0 5.5 18 14.5 W 13 22 7 12 1015.6 - 0.0
23/04:00pm 32.5 29.5 6.1 19 14.3 SSW 11 24 6 13 1015.9 - 0.0
23/03:30pm 32.1 29.4 5.6 19 14.2 SW 9 20 5 11 1016.3 - 0.0
23/03:00pm 31.6 30.5 5.3 19 14.0 CALM 0 4 0 2 1016.9 1016.3 0.0
23/02:30pm 30.9 28.2 7.4 23 12.9 W 11 20 6 11 1017.5 - 0.0
23/02:00pm 30.5 27.6 8.1 24 12.4 NNW 13 22 7 12 1018.1 - 0.0
23/01:30pm 29.1 27.5 8.2 27 11.5 NNW 6 19 3 10 1018.7 - 0.0
23/01:00pm 29.8 28.1 8.3 26 11.9 N 7 17 4 9 1019.3 - 0.0
23/12:30pm 27.6 24.9 9.0 31 10.3 N 13 26 7 14 1019.9 - 0.0
23/12:00pm 27.2 24.1 8.9 31 10.1 N 15 22 8 12 1020.4 1019.8 0.0
23/11:30am 26.9 23.5 9.2 32 9.8 N 17 22 9 12 1020.9 - 0.0
23/11:00am 25.3 20.9 9.0 35 8.9 N 22 32 12 17 1021.2 - 0.0
23/10:30am 24.5 19.9 9.6 39 8.2 N 24 33 13 18 1021.5 - 0.0
23/10:00am 22.7 17.7 9.4 42 7.2 N 26 33 14 18 1021.7 - 0.0
23/09:30am 21.6 15.9 9.8 47 6.4 N 30 41 16 22 1021.5 - 0.0
23/09:00am 20.1 14.4 9.7 51 5.6 N 30 37 16 20 1021.4 1020.8 0.0
23/08:30am 19.7 13.6 9.9 53 5.3 NNE 32 39 17 21 1021.4 - 0.0
23/08:00am 19.1 13.5 10.0 55 4.9 NNE 30 41 16 22 1021.3 - 0.0
23/07:30am 17.8 12.2 10.1 60 4.1 NNE 30 37 16 20 1021.2 - 0.0
23/07:00am 17.4 12.1 9.7 60 4.1 NE 28 33 15 18 1020.9 - 0.0
23/06:30am 17.3 12.6 9.3 59 4.2 NE 24 30 13 16 1021.0 - 0.0
23/06:00am 17.5 12.9 9.6 60 4.2 NE 24 30 13 16 1020.7 1020.1 0.0
23/05:30am 17.9 14.4 8.7 55 4.8 NNE 17 22 9 12 1020.9 - 0.0
23/05:00am 18.2 15.4 8.4 52 5.1 NNE 13 17 7 9 1021.1 - 0.0
23/04:30am 19.0 16.8 8.0 49 5.7 WNW 9 13 5 7 1021.3 - 0.0
23/04:00am 18.7 15.8 8.1 50 5.5 N 13 20 7 11 1020.8 - 0.0
23/03:30am 19.1 15.3 7.4 46 6.0 NNE 17 26 9 14 1020.4 - 0.0
23/03:00am 19.6 14.2 6.3 42 6.7 NNE 24 32 13 17 1019.5 1018.8 0.0
23/02:30am 19.9 14.8 5.9 40 7.0 NNE 22 28 12 15 1019.8 - 0.0
23/02:00am 20.2 15.7 6.1 39 7.1 NNE 19 26 10 14 1020.2 - 0.0
23/01:30am 20.3 15.8 6.2 40 7.1 NNE 19 24 10 13 1020.2 - 0.0
23/01:00am 19.3 14.5 7.2 45 6.2 NE 22 28 12 15 1020.3 - 0.0
23/12:30am 18.6 17.5 6.9 46 5.9 ENE 2 9 1 5 1019.9 - 0.0
23/12:00am 20.2 20.4 10.5 53 5.3 N 0 0 0 0 1020.0 1019.3 0.0
 
Date/Time
EDT
Temp
°C
App
Temp
°C
Dew
Point
Rel
Hum
%
Delta-T
°C
Wind Press
QNH
hPa
Press
MSL
hPa
Rain
since 9 am
mm
Dir
 
Spd
km/h
Gust
km/h
Spd
kts
Gust
kts
22/11:30pm 20.1 20.3 10.4 53 5.3 CALM 0 0 0 0 1020.1 - 0.0
22/11:00pm 19.7 20.0 11.0 57 4.8 CALM 0 0 0 0 1020.2 - 0.0
22/10:30pm 20.9 20.7 9.1 46 6.3 CALM 0 0 0 0 1020.2 - 0.0
22/10:00pm 23.1 21.6 9.3 41 7.5 N 7 11 4 6 1020.1 - 0.0
22/09:30pm 22.6 22.8 10.5 46 6.7 CALM 0 0 0 0 1020.0 - 0.0
22/09:00pm 22.8 22.7 9.4 42 7.3 CALM 0 0 0 0 1019.8 1019.1 0.0
22/08:30pm 24.3 24.3 9.8 40 8.0 CALM 0 0 0 0 1019.8 - 0.0
22/08:00pm 24.9 24.9 9.7 38 8.4 CALM 0 0 0 0 1019.5 - 0.0
22/07:30pm 26.8 26.5 8.5 31 10.0 CALM 0 0 0 0 1019.3 - 0.0
22/07:00pm 28.0 27.4 7.5 27 11.1 CALM 0 0 0 0 1019.2 - 0.0
22/06:30pm 28.8 27.7 7.1 25 11.7 SSW 2 7 1 4 1019.2 - 0.0
22/06:00pm 28.9 28.4 7.9 26 11.5 CALM 0 11 0 6 1019.2 1018.5 0.0
22/05:30pm 29.5 28.9 7.5 25 12.0 CALM 0 7 0 4 1019.3 - 0.0
22/05:00pm 29.5 28.9 8.9 27 11.5 W 2 9 1 5 1019.4 - 0.0
22/04:30pm 29.0 28.2 8.3 27 11.4 WNW 2 9 1 5 1019.5 - 0.0
22/04:00pm 28.8 27.1 8.5 28 11.2 NNW 7 17 4 9 1019.7 - 0.0
22/03:30pm 28.0 27.1 9.1 30 10.5 W 4 13 2 7 1020.2 - 0.0
22/03:00pm 28.6 27.1 9.3 30 10.8 W 7 17 4 9 1020.8 1020.2 0.0
22/02:30pm 28.0 26.1 9.1 30 10.5 NE 9 17 5 9 1021.2 - 0.0
22/02:00pm 27.2 26.5 8.6 31 10.2 W 2 11 1 6 1021.8 - 0.0
22/01:30pm 26.8 24.8 8.5 31 10.0 NNE 9 17 5 9 1022.5 - 0.0
22/01:00pm 25.5 23.1 8.8 34 9.1 N 11 19 6 10 1023.2 - 0.0
22/12:30pm 25.6 23.1 8.2 33 9.4 NNE 11 26 6 14 1023.8 - 0.0
22/12:00pm 24.3 21.0 8.2 35 8.6 N 15 26 8 14 1024.4 1023.8 0.0
22/11:30am 24.4 21.1 7.9 35 8.8 NNE 15 24 8 13 1024.7 - 0.0
22/11:00am 22.7 19.0 7.9 38 7.8 NE 17 30 9 16 1025.2 - 0.0
22/10:30am 21.9 18.7 8.3 41 7.2 NE 15 24 8 13 1025.7 - 0.0
22/10:00am 20.6 16.5 7.7 43 6.7 NNE 19 28 10 15 1025.9 - 0.0
22/09:30am 20.3 15.2 7.8 44 6.5 NNE 24 32 13 17 1025.9 - 0.0
22/09:00am 19.0 14.4 8.0 49 5.7 NE 22 30 12 16 1025.9 1025.3 0.0
22/08:30am 18.3 14.0 8.0 51 5.3 NE 20 28 11 15 1025.8 - 0.0
22/08:00am 17.4 12.8 8.3 55 4.7 ENE 22 28 12 15 1025.6 - 0.0
22/07:30am 16.8 14.1 8.9 59 4.1 ENE 13 17 7 9 1025.6 - 0.0
22/07:00am 15.3 13.0 9.1 66 3.2 NE 11 15 6 8 1025.3 - 0.0
22/06:30am 14.8 12.1 8.9 68 3.0 NE 13 15 7 8 1024.9 - 0.0
22/06:00am 15.2 12.5 9.0 66 3.2 ENE 13 17 7 9 1024.6 1024.0 0.0
22/05:30am 15.5 12.0 8.9 65 3.4 ENE 17 22 9 12 1024.2 - 0.0
22/05:00am 15.6 12.6 9.2 65 3.3 ENE 15 20 8 11 1024.1 - 0.0
22/04:30am 16.3 12.9 9.0 62 3.8 NE 17 20 9 11 1024.1 - 0.0
22/04:00am 17.1 12.7 9.0 59 4.2 NE 22 32 12 17 1024.0 - 0.0
22/03:30am 17.5 12.8 9.1 58 4.4 ENE 24 33 13 18 1024.1 - 0.0
22/03:00am 17.7 13.0 9.3 58 4.4 NE 24 30 13 16 1024.3 1023.7 0.0
22/02:30am 18.3 13.6 9.4 56 4.7 NE 24 30 13 16 1024.6 - 0.0
22/02:00am 18.9 15.1 9.7 55 4.9 NE 20 28 11 15 1024.9 - 0.0
22/01:30am 19.3 15.6 10.2 55 4.9 NE 20 26 11 14 1024.9 - 0.0
22/01:00am 19.8 15.5 10.6 55 5.0 NE 24 30 13 16 1025.0 - 0.0
22/12:30am 20.6 15.5 10.5 52 5.5 NE 28 35 15 19 1025.0 - 0.0
22/12:00am 21.3 16.6 10.8 51 5.8 ENE 26 33 14 18 1025.1 1024.5 0.0
 
Date/Time
EDT
Temp
°C
App
Temp
°C
Dew
Point
Rel
Hum
%
Delta-T
°C
Wind Press
QNH
hPa
Press
MSL
hPa
Rain
since 9 am
mm
Dir
 
Spd
km/h
Gust
km/h
Spd
kts
Gust
kts
21/11:30pm 21.9 17.4 10.2 47 6.4 ENE 24 35 13 19 1024.9 - 0.0
21/11:00pm 22.8 18.0 8.8 40 7.5 E 24 33 13 18 1024.7 - 0.0
21/10:30pm 23.1 19.3 7.5 36 8.2 ESE 17 32 9 17 1024.3 - 0.0
21/10:00pm 24.0 21.6 7.0 33 8.9 ESE 9 11 5 6 1024.1 - 0.0
21/09:30pm 23.2 20.8 7.1 35 8.4 E 9 13 5 7 1023.6 - 0.0
21/09:00pm 23.7 20.6 7.3 35 8.6 S 13 15 7 8 1023.4 1022.7 0.0
21/08:30pm 25.1 24.5 7.4 32 9.4 CALM 0 0 0 0 1023.1 - 0.0
21/08:00pm 25.3 23.1 6.3 29 9.9 SSW 7 15 4 8 1022.8 - 0.0
21/07:30pm 26.9 26.7 9.2 32 9.8 CALM 0 0 0 0 1022.3 - 0.0
21/07:00pm 28.7 28.2 7.8 27 11.4 CALM 0 0 0 0 1022.0 - 0.0
21/06:30pm 29.6 27.6 7.0 24 12.3 S 7 17 4 9 1022.0 - 0.0
21/06:00pm 29.8 28.0 7.1 24 12.3 SSE 6 17 3 9 1021.8 1021.2 0.0
21/05:30pm 29.8 29.1 7.1 24 12.3 CALM 0 9 0 5 1021.9 - 0.0
21/05:00pm 30.3 28.9 7.1 23 12.6 S 4 15 2 8 1022.0 - 0.0
21/04:30pm 30.0 28.3 8.3 25 12.0 SSE 7 17 4 9 1022.0 - 0.0
21/04:00pm 30.0 29.4 8.9 26 11.8 WSW 2 11 1 6 1022.3 - 0.0
21/03:30pm 29.1 28.4 8.7 28 11.3 NW 2 9 1 5 1022.7 - 0.0
21/03:00pm 28.8 28.0 8.2 27 11.3 NW 2 9 1 5 1023.3 1022.6 0.0
21/02:30pm 28.9 28.3 8.9 28 11.1 W 2 9 1 5 1023.8 - 0.0
21/02:00pm 27.5 25.3 9.3 32 10.1 N 11 17 6 9 1024.5 - 0.0
21/01:30pm 27.7 26.6 9.9 32 10.0 NW 6 13 3 7 1025.0 - 0.0
21/01:00pm 27.2 26.1 9.8 33 9.8 N 6 17 3 9 1025.5 - 0.0
21/12:30pm 26.3 25.6 10.2 36 9.1 NW 4 11 2 6 1026.0 - 0.0
21/12:00pm 25.3 23.8 10.5 39 8.3 E 9 22 5 12 1026.5 1025.9 0.0
21/11:30am 24.8 22.8 10.2 39 8.1 N 11 19 6 10 1027.2 - 0.0
21/11:00am 23.8 21.8 10.2 42 7.6 E 11 19 6 10 1027.6 - 0.0
21/10:30am 22.9 20.6 10.4 45 6.9 NNE 13 24 7 13 1027.7 - 0.0
21/10:00am 22.3 20.0 10.5 47 6.5 NE 13 22 7 12 1027.9 - 0.0
21/09:30am 22.2 20.3 10.6 47 6.4 NNE 11 19 6 10 1027.8 - 0.0
21/09:00am 21.9 19.2 10.4 48 6.3 E 15 22 8 12 1027.8 1027.1 0.0
21/08:30am 21.1 17.6 10.1 49 6.0 ENE 19 26 10 14 1027.4 - 0.0
21/08:00am 19.9 16.7 10.1 53 5.3 NE 17 26 9 14 1027.1 - 0.0
21/07:30am 18.7 17.2 10.6 59 4.4 NE 9 13 5 7 1026.8 - 0.0
21/07:00am 17.2 15.1 9.6 61 4.0 NNE 11 13 6 7 1026.3 - 0.0
21/06:30am 16.5 14.7 9.4 63 3.7 NNE 9 13 5 7 1025.9 - 0.0
21/06:00am 16.3 14.2 9.6 64 3.5 NE 11 11 6 6 1025.7 1025.1 0.0
21/05:30am 17.0 14.9 9.6 61 3.9 NE 11 11 6 6 1025.3 - 0.0
21/05:00am 17.6 15.5 9.7 60 4.2 NNE 11 13 6 7 1025.0 - 0.0
21/04:30am 18.2 15.7 9.7 57 4.5 NNE 13 15 7 8 1024.9 - 0.0
21/04:00am 18.6 16.2 10.0 57 4.6 NE 13 15 7 8 1024.7 - 0.0
21/03:30am 18.9 16.6 10.4 57 4.6 NE 13 15 7 8 1024.6 - 0.0
21/03:00am 19.7 17.4 10.5 55 5.0 NE 13 17 7 9 1024.5 1023.9 0.0
21/02:30am 20.0 17.3 10.4 54 5.2 ENE 15 20 8 11 1024.4 - 0.0
21/02:00am 21.0 17.4 10.4 50 5.8 NE 20 30 11 16 1024.4 - 0.0
21/01:30am 21.5 17.1 10.4 49 6.1 NE 24 35 13 19 1024.4 - 0.0
21/01:00am 22.5 17.5 9.6 44 7.0 ENE 26 35 14 19 1024.4 - 0.0
21/12:30am 23.4 17.9 9.2 40 7.7 ENE 28 35 15 19 1024.2 - 0.0
21/12:00am 24.3 18.0 7.2 33 9.0 ENE 30 41 16 22 1024.0 1023.3 0.0
 
Date/Time
EDT
Temp
°C
App
Temp
°C
Dew
Point
Rel
Hum
%
Delta-T
°C
Wind Press
QNH
hPa
Press
MSL
hPa
Rain
since 9 am
mm
Dir
 
Spd
km/h
Gust
km/h
Spd
kts
Gust
kts
20/11:30pm 25.2 18.5 5.8 28 10.0 ENE 30 37 16 20 1023.7 - 0.0
20/11:00pm 23.7 19.4 7.9 36 8.4 E 20 28 11 15 1023.3 - 0.0
20/10:30pm 24.7 21.0 7.8 34 9.0 E 17 26 9 14 1022.8 - 0.0
20/10:00pm 25.9 22.4 7.0 30 10.0 SE 15 19 8 10 1022.5 - 0.0
20/09:30pm 24.9 20.0 2.0 22 11.0 SSE 17 24 9 13 1022.1 - 0.0
20/09:00pm 24.8 21.1 2.2 23 10.9 SSE 11 13 6 7 1021.3 1020.7 0.0
20/08:30pm 25.7 24.4 3.9 24 10.9 CALM 0 0 0 0 1020.8 - 0.0
20/08:00pm 27.3 23.3 3.0 21 12.1 S 13 17 7 9 1020.6 - 0.0
20/07:30pm 29.1 25.1 2.8 18 13.2 SSW 13 15 7 8 1020.3 - 0.0
20/07:00pm 30.8 26.8 2.8 17 14.2 SSW 13 15 7 8 1019.9 - 0.0

Other Formats:

Comma delimited format used in spreadsheet applications
http://www.bom.gov.au/fwo/IDN60801/IDN60801.95527.axf

JavaScript Object Notation format (JSON) in row-major order
http://www.bom.gov.au/fwo/IDN60801/IDN60801.95527.json